Time;durP1;ratioP1;P1;durP2;ratioP2;P2;SDS_P1;SDS_P2;PMS_P1;PMS_P2;Temp;Humidity;BMP_temperature;BMP_pressure;BME280_temperature;BME280_humidity;BME280_pressure;Samples;Min_cycle;Max_cycle;Signal;HPM_P1;HPM_P2
2023/06/01 00:01:33;;;;;;;7.37;6.77;;;18.60;39.30;;;;;;20777;6826;117370;-77
2023/06/01 00:03:58;;;;;;;12.70;11.50;;;18.50;39.70;;;;;;20704;6843;117473;-76
2023/06/01 00:06:23;;;;;;;7.03;6.43;;;18.30;39.90;;;;;;20475;6853;312020;-76
2023/06/01 00:08:49;;;;;;;4.67;4.37;;;18.60;40.70;;;;;;20781;6824;117673;-76
2023/06/01 00:11:14;;;;;;;5.07;3.93;;;18.60;40.40;;;;;;20738;6837;117075;-76
2023/06/01 00:13:41;;;;;;;5.47;4.97;;;18.40;40.30;;;;;;20546;6826;280079;-76
2023/06/01 00:16:07;;;;;;;5.97;4.50;;;18.50;40.70;;;;;;20517;6842;283602;-76
2023/06/01 00:18:32;;;;;;;5.93;4.73;;;18.90;40.30;;;;;;20512;6842;278316;-76
2023/06/01 00:21:00;;;;;;;6.13;4.87;;;19.10;39.90;;;;;;20517;6842;277331;-76
2023/06/01 00:23:23;;;;;;;6.83;4.83;;;19.20;39.30;;;;;;20501;6837;329524;-76
2023/06/01 00:25:49;;;;;;;5.20;4.70;;;19.40;39.00;;;;;;20546;6826;311419;-76
2023/06/01 00:28:15;;;;;;;4.17;3.83;;;19.40;38.60;;;;;;20775;6826;117301;-76
2023/06/01 00:30:40;;;;;;;5.40;4.57;;;19.10;38.80;;;;;;20520;6843;307163;-76
2023/06/01 00:33:06;;;;;;;4.20;3.90;;;19.00;38.80;;;;;;20693;6852;124231;-76
2023/06/01 00:35:31;;;;;;;3.92;3.62;;;18.70;38.90;;;;;;20743;6838;117696;-76
2023/06/01 00:37:57;;;;;;;4.40;4.10;;;18.40;39.30;;;;;;20765;6826;118089;-76
2023/06/01 00:40:22;;;;;;;3.73;3.43;;;18.10;39.60;;;;;;20774;6826;117187;-76
2023/06/01 00:42:48;;;;;;;4.80;4.40;;;17.90;40.00;;;;;;20567;6826;298681;-76
2023/06/01 00:45:13;;;;;;;5.10;3.70;;;18.10;40.20;;;;;;20724;6843;124514;-76
2023/06/01 00:47:39;;;;;;;6.73;4.37;;;18.10;40.00;;;;;;20464;6853;292712;-76
2023/06/01 00:50:06;;;;;;;5.50;4.30;;;18.30;39.90;;;;;;20553;6826;310940;-76
2023/06/01 00:52:32;;;;;;;8.33;4.27;;;18.60;39.40;;;;;;20769;6826;121041;-76
2023/06/01 00:54:58;;;;;;;4.47;4.07;;;18.20;39.70;;;;;;20713;6843;117017;-77
2023/06/01 00:57:26;;;;;;;4.53;4.00;;;18.20;39.80;;;;;;20689;6853;123831;-76
2023/06/01 00:59:51;;;;;;;5.50;4.22;;;17.90;40.00;;;;;;20543;6826;336030;-76
2023/06/01 01:02:18;;;;;;;6.87;4.27;;;18.10;40.30;;;;;;20775;6826;118266;-76
2023/06/01 01:04:42;;;;;;;4.67;3.93;;;18.10;40.20;;;;;;20764;6826;116938;-76
2023/06/01 01:07:07;;;;;;;4.17;3.83;;;17.90;40.30;;;;;;20774;6826;117718;-76
2023/06/01 01:09:40;;;;;;;4.87;4.37;;;17.80;40.60;;;;;;20546;6826;277609;-76
2023/06/01 01:12:25;;;;;;;5.17;4.63;;;18.00;41.00;;;;;;20484;6843;307230;-76
2023/06/01 01:14:57;;;;;;;6.40;4.50;;;18.40;40.10;;;;;;20447;6853;307577;-76
2023/06/01 01:17:24;;;;;;;4.43;3.93;;;18.70;39.50;;;;;;20772;6826;117394;-76
2023/06/01 01:20:05;;;;;;;6.25;4.72;;;18.50;39.60;;;;;;20467;6841;308055;-76
2023/06/01 01:22:38;;;;;;;5.73;4.60;;;18.70;39.70;;;;;;20487;6842;278324;-77
2023/06/01 01:25:33;;;;;;;4.63;4.23;;;18.60;39.50;;;;;;20718;6837;119680;-76
2023/06/01 01:28:09;;;;;;;5.10;4.13;;;18.40;39.70;;;;;;20741;6826;117786;-77
2023/06/01 01:30:35;;;;;;;4.70;3.87;;;18.00;40.20;;;;;;19937;6842;119486;-77
2023/06/01 01:33:00;;;;;;;6.20;4.23;;;17.70;40.70;;;;;;20679;6852;116092;-77
2023/06/01 01:35:26;;;;;;;4.73;4.27;;;17.50;40.90;;;;;;20769;6826;117843;-77
2023/06/01 01:37:51;;;;;;;5.18;4.45;;;17.30;41.20;;;;;;20538;6826;311750;-77
2023/06/01 01:40:17;;;;;;;5.10;4.70;;;17.60;41.40;;;;;;20505;6843;308546;-77
2023/06/01 01:42:42;;;;;;;4.93;4.43;;;18.10;40.80;;;;;;20508;6843;311760;-77
2023/06/01 01:45:08;;;;;;;4.97;4.57;;;18.40;40.30;;;;;;20520;6838;307664;-77
2023/06/01 01:47:43;;;;;;;5.27;4.70;;;18.60;39.60;;;;;;20560;6826;277137;-77
2023/06/01 01:50:09;;;;;;;5.28;4.78;;;18.70;39.60;;;;;;20481;6843;311856;-77
2023/06/01 01:52:36;;;;;;;4.40;4.00;;;18.80;39.30;;;;;;20680;6852;116878;-77
2023/06/01 01:55:01;;;;;;;5.17;4.70;;;18.60;39.90;;;;;;20543;6826;307494;-77
2023/06/01 01:57:29;;;;;;;5.15;4.80;;;18.50;41.80;;;;;;20560;6826;307859;-77
2023/06/01 01:59:54;;;;;;;4.30;4.00;;;18.70;42.30;;;;;;20752;6826;123445;-77
2023/06/01 02:02:20;;;;;;;5.87;4.85;;;18.50;42.20;;;;;;20502;6843;306707;-77
2023/06/01 02:04:45;;;;;;;5.25;4.75;;;18.50;42.10;;;;;;20476;6853;306529;-77
2023/06/01 02:07:12;;;;;;;5.30;4.80;;;18.70;41.70;;;;;;20545;6826;281606;-77
2023/06/01 02:09:37;;;;;;;5.17;4.77;;;18.70;41.70;;;;;;20770;6826;118272;-79
2023/06/01 02:12:03;;;;;;;5.97;4.43;;;18.50;41.80;;;;;;20625;6826;117939;-77
2023/06/01 02:14:29;;;;;;;5.13;4.70;;;17.70;42.50;;;;;;20763;6826;116960;-77
2023/06/01 02:16:55;;;;;;;5.30;4.90;;;17.80;42.90;;;;;;20566;6826;341391;-77
2023/06/01 02:19:21;;;;;;;5.23;4.73;;;17.80;42.90;;;;;;20720;6843;117433;-77
2023/06/01 02:21:47;;;;;;;5.50;5.00;;;17.70;42.70;;;;;;20497;6843;278836;-77
2023/06/01 02:24:12;;;;;;;4.93;4.53;;;17.80;42.90;;;;;;20683;6853;117465;-77
2023/06/01 02:26:38;;;;;;;5.30;4.90;;;17.70;42.80;;;;;;20564;6826;278019;-77
2023/06/01 02:29:08;;;;;;;5.27;4.77;;;17.80;43.00;;;;;;20513;6843;307373;-77
2023/06/01 02:31:33;;;;;;;5.20;4.80;;;18.10;43.40;;;;;;20508;6841;307112;-77
2023/06/01 02:33:59;;;;;;;5.20;4.60;;;18.30;42.70;;;;;;20676;6852;117315;-77
2023/06/01 02:36:31;;;;;;;5.25;4.65;;;18.10;42.50;;;;;;20551;6826;306593;-77
2023/06/01 02:38:53;;;;;;;4.70;4.30;;;18.10;42.40;;;;;;20726;6826;117484;-77
2023/06/01 02:41:21;;;;;;;5.03;4.53;;;17.90;42.50;;;;;;20564;6826;277859;-77
2023/06/01 02:43:45;;;;;;;4.43;4.10;;;17.90;42.60;;;;;;20747;6826;119547;-77
2023/06/01 02:46:10;;;;;;;4.40;4.00;;;17.70;42.80;;;;;;20696;6852;117472;-77
2023/06/01 02:48:36;;;;;;;4.73;4.27;;;17.20;44.40;;;;;;20760;6826;118362;-77
2023/06/01 02:51:02;;;;;;;5.20;4.78;;;17.20;43.70;;;;;;20561;6826;340156;-77
2023/06/01 02:53:28;;;;;;;4.68;4.37;;;17.30;43.90;;;;;;20770;6826;117376;-77
2023/06/01 02:55:53;;;;;;;5.40;5.00;;;17.20;43.60;;;;;;20544;6826;278798;-77
2023/06/01 02:58:19;;;;;;;5.70;4.70;;;17.30;43.60;;;;;;20775;6826;117677;-77
2023/06/01 03:00:45;;;;;;;5.20;4.80;;;17.20;43.50;;;;;;20570;6826;279655;-77
2023/06/01 03:03:10;;;;;;;5.10;4.70;;;17.30;43.50;;;;;;20562;6826;336063;-77
2023/06/01 03:05:35;;;;;;;5.55;5.03;;;17.60;43.40;;;;;;20519;6843;286710;-77
2023/06/01 03:08:01;;;;;;;5.60;5.20;;;17.80;42.50;;;;;;20508;6843;307047;-77
2023/06/01 03:10:27;;;;;;;5.22;4.90;;;17.90;42.20;;;;;;20508;6843;314601;-77
2023/06/01 03:12:52;;;;;;;4.53;4.22;;;17.90;42.10;;;;;;20666;6853;117092;-77
2023/06/01 03:15:18;;;;;;;4.60;4.20;;;17.60;42.40;;;;;;20773;6826;117401;-77
2023/06/01 03:17:43;;;;;;;5.10;4.70;;;17.20;43.00;;;;;;20542;6826;277498;-77
2023/06/01 03:20:14;;;;;;;4.95;4.55;;;17.20;43.40;;;;;;20514;6843;311435;-77
2023/06/01 03:22:35;;;;;;;5.20;4.80;;;17.40;43.20;;;;;;20488;6843;307210;-77
2023/06/01 03:25:05;;;;;;;5.60;4.90;;;17.60;42.70;;;;;;20482;6853;309517;-77
2023/06/01 03:27:26;;;;;;;4.85;4.55;;;17.80;42.70;;;;;;20762;6826;116868;-77
2023/06/01 03:29:51;;;;;;;4.70;4.30;;;17.60;42.90;;;;;;20694;6843;127408;-77
2023/06/01 03:32:18;;;;;;;4.90;4.20;;;16.80;43.60;;;;;;20672;6853;117463;-77
2023/06/01 03:34:43;;;;;;;4.70;4.30;;;16.80;43.50;;;;;;20749;6826;117051;-77
2023/06/01 03:37:10;;;;;;;5.82;4.90;;;16.80;43.60;;;;;;20548;6826;282997;-77
2023/06/01 03:39:35;;;;;;;4.93;4.53;;;16.70;43.50;;;;;;20761;6826;116986;-77
2023/06/01 03:42:01;;;;;;;6.12;5.07;;;16.70;43.60;;;;;;20526;6824;338627;-77
2023/06/01 03:44:26;;;;;;;5.90;4.67;;;16.80;43.50;;;;;;20770;6825;116951;-77
2023/06/01 03:46:52;;;;;;;6.90;6.35;;;16.80;43.70;;;;;;20472;6852;344178;-77
2023/06/01 03:49:18;;;;;;;7.43;6.65;;;17.00;43.40;;;;;;20773;6826;117539;-77
2023/06/01 03:51:43;;;;;;;5.93;5.43;;;16.90;43.40;;;;;;20521;6826;278329;-77
2023/06/01 03:54:09;;;;;;;5.80;5.30;;;17.00;43.10;;;;;;20538;6826;311237;-77
2023/06/01 03:56:35;;;;;;;5.13;4.60;;;17.20;42.50;;;;;;20762;6826;114080;-77
2023/06/01 03:59:00;;;;;;;5.40;4.90;;;17.10;42.70;;;;;;20757;6826;116102;-77
2023/06/01 04:01:28;;;;;;;4.60;4.20;;;16.80;43.20;;;;;;20758;6826;117035;-77
2023/06/01 04:03:52;;;;;;;5.35;4.95;;;16.60;43.70;;;;;;20533;6826;291868;-77
2023/06/01 04:06:17;;;;;;;5.82;5.05;;;16.80;43.40;;;;;;20559;6826;306460;-77
2023/06/01 04:08:48;;;;;;;5.10;4.70;;;17.10;42.90;;;;;;20552;6826;308945;-77
2023/06/01 04:11:07;;;;;;;8.93;4.70;;;17.40;42.40;;;;;;20760;6826;120966;-77
2023/06/01 04:13:33;;;;;;;5.50;5.10;;;17.30;42.70;;;;;;20523;6838;303775;-77
2023/06/01 04:16:00;;;;;;;5.10;4.70;;;17.60;42.50;;;;;;20522;6826;307239;-77
2023/06/01 04:18:25;;;;;;;5.18;4.80;;;17.60;42.50;;;;;;20492;6843;336778;-77
2023/06/01 04:20:50;;;;;;;5.13;4.70;;;17.90;42.60;;;;;;20489;6843;336740;-77
2023/06/01 04:23:16;;;;;;;4.95;4.50;;;18.00;42.70;;;;;;20688;6853;117654;-77
2023/06/01 04:25:43;;;;;;;5.15;4.75;;;17.80;42.90;;;;;;20537;6826;306684;-78
2023/06/01 04:28:07;;;;;;;4.32;4.03;;;17.80;43.40;;;;;;20721;6843;117494;-77
2023/06/01 04:30:33;;;;;;;5.47;4.97;;;17.70;43.70;;;;;;20480;6853;310151;-77
2023/06/01 04:32:59;;;;;;;5.28;4.87;;;17.70;44.10;;;;;;20545;6826;277973;-77
2023/06/01 04:35:24;;;;;;;4.60;4.30;;;17.90;43.80;;;;;;20773;6826;117723;-77
2023/06/01 04:37:50;;;;;;;4.75;4.45;;;17.80;43.90;;;;;;20746;6826;117143;-77
2023/06/01 04:40:16;;;;;;;5.10;4.33;;;17.50;44.30;;;;;;20745;6826;117725;-77
2023/06/01 04:42:41;;;;;;;4.70;4.40;;;17.40;44.60;;;;;;20751;6826;117114;-77
2023/06/01 04:45:07;;;;;;;5.53;5.03;;;17.30;44.80;;;;;;20535;6826;278386;-77
2023/06/01 04:47:37;;;;;;;5.47;4.97;;;17.50;43.60;;;;;;20539;6826;278805;-77
2023/06/01 04:50:00;;;;;;;5.40;4.90;;;18.20;42.90;;;;;;20468;6843;307831;-77
2023/06/01 04:52:26;;;;;;;4.57;4.17;;;18.20;42.90;;;;;;20686;6853;117222;-77
2023/06/01 04:54:51;;;;;;;4.67;4.23;;;18.00;42.90;;;;;;20765;6825;116995;-78
2023/06/01 04:57:18;;;;;;;4.57;4.28;;;17.80;43.30;;;;;;20775;6826;117505;-77
2023/06/01 04:59:42;;;;;;;6.10;5.60;;;17.50;43.50;;;;;;20534;6826;291341;-78
2023/06/01 05:02:08;;;;;;;5.60;5.00;;;17.70;43.40;;;;;;20712;6842;117473;-77
2023/06/01 05:04:34;;;;;;;6.18;4.90;;;17.80;43.90;;;;;;20482;6852;278579;-77
2023/06/01 05:07:00;;;;;;;5.20;4.90;;;17.80;43.90;;;;;;20547;6826;278373;-77
2023/06/01 05:09:26;;;;;;;5.23;4.73;;;18.10;43.70;;;;;;20766;6826;117247;-78
2023/06/01 05:11:52;;;;;;;4.87;4.37;;;17.90;43.70;;;;;;20755;6826;117397;-81
2023/06/01 05:14:17;;;;;;;9.00;4.50;;;17.70;44.10;;;;;;20688;6852;123763;-77
2023/06/01 05:16:43;;;;;;;6.37;5.35;;;17.40;44.40;;;;;;20559;6826;306455;-78
2023/06/01 05:19:10;;;;;;;4.97;4.67;;;17.60;44.70;;;;;;20723;6843;124120;-78
2023/06/01 05:21:35;;;;;;;5.53;5.13;;;17.60;44.60;;;;;;20491;6843;316292;-79
2023/06/01 05:24:02;;;;;;;5.03;4.53;;;17.70;44.60;;;;;;20698;6843;117710;-83
2023/06/01 05:26:27;;;;;;;5.10;4.70;;;17.70;44.60;;;;;;20475;6852;307609;-77
2023/06/01 05:28:53;;;;;;;5.33;5.00;;;17.90;44.90;;;;;;20561;6826;277077;-77
2023/06/01 05:31:20;;;;;;;5.43;4.93;;;18.10;44.30;;;;;;20767;6826;117112;-77
2023/06/01 05:33:45;;;;;;;6.32;5.28;;;18.10;44.30;;;;;;20562;6826;308830;-79
2023/06/01 05:36:10;;;;;;;5.12;4.80;;;18.20;44.30;;;;;;20508;6843;340409;-79
2023/06/01 05:38:36;;;;;;;5.75;5.25;;;18.50;44.00;;;;;;20472;6853;280849;-77
2023/06/01 05:41:01;;;;;;;5.90;5.40;;;18.70;43.70;;;;;;20566;6826;303576;-77
2023/06/01 05:43:29;;;;;;;6.17;5.60;;;19.00;43.50;;;;;;20566;6826;282545;-77
2023/06/01 05:45:54;;;;;;;6.30;5.40;;;18.90;43.40;;;;;;20549;6826;281120;-77
2023/06/01 05:48:20;;;;;;;6.83;5.00;;;19.10;43.30;;;;;;20718;6843;117595;-77
2023/06/01 05:50:46;;;;;;;5.27;4.87;;;18.90;43.50;;;;;;20735;6843;117197;-77
2023/06/01 05:53:11;;;;;;;5.57;5.17;;;18.60;44.00;;;;;;20759;6853;116322;-77
2023/06/01 05:55:37;;;;;;;5.87;5.30;;;18.40;44.40;;;;;;20770;6838;116673;-77
2023/06/01 05:58:02;;;;;;;5.70;5.20;;;18.20;44.60;;;;;;20750;6826;123257;-83
2023/06/01 06:00:28;;;;;;;6.23;5.10;;;18.10;44.60;;;;;;20762;6826;118285;-77
2023/06/01 06:02:53;;;;;;;6.87;6.18;;;18.10;44.80;;;;;;20561;6826;314940;-77
2023/06/01 06:05:19;;;;;;;7.93;5.40;;;18.50;44.10;;;;;;20698;6851;123074;-77
2023/06/01 06:07:45;;;;;;;9.20;5.70;;;18.70;44.00;;;;;;20750;6825;117952;-77
2023/06/01 06:13:36;;;;;;;6.20;5.70;;;19.10;44.30;;;;;;20540;6826;306613;-75
2023/06/01 06:16:02;;;;;;;7.60;5.03;;;20.20;42.70;;;;;;20767;6826;117014;-76
2023/06/01 06:18:28;;;;;;;6.30;5.70;;;21.40;41.90;;;;;;20576;6826;282681;-76
2023/06/01 06:20:54;;;;;;;5.53;4.67;;;21.40;41.20;;;;;;20782;6826;117190;-76
2023/06/01 06:23:22;;;;;;;6.23;5.07;;;22.40;41.90;;;;;;20778;6826;117011;-76
2023/06/01 06:25:48;;;;;;;7.37;5.00;;;22.40;41.80;;;;;;20761;6826;117260;-76
2023/06/01 06:28:13;;;;;;;6.20;4.93;;;23.20;40.80;;;;;;20780;6826;123178;-76
2023/06/01 06:30:39;;;;;;;5.63;4.83;;;23.10;40.70;;;;;;20776;6826;117485;-76
2023/06/01 06:33:04;;;;;;;6.00;5.03;;;23.50;40.50;;;;;;20773;6826;68656;-78
2023/06/01 06:35:30;;;;;;;8.40;5.33;;;23.90;40.30;;;;;;20725;6843;117223;-77
2023/06/01 06:37:56;;;;;;;6.27;4.77;;;24.50;39.60;;;;;;20719;6838;117371;-76
2023/06/01 06:40:23;;;;;;;6.90;5.27;;;24.50;39.60;;;;;;20783;6826;117253;-77
2023/06/01 06:42:50;;;;;;;5.03;4.63;;;24.90;39.20;;;;;;20720;6843;123811;-77
2023/06/01 06:45:14;;;;;;;6.53;4.90;;;25.20;38.50;;;;;;20743;6838;123453;-77
2023/06/01 06:47:41;;;;;;;5.20;4.70;;;25.50;38.00;;;;;;20762;6826;117482;-76
2023/06/01 06:50:07;;;;;;;6.97;5.50;;;25.80;37.60;;;;;;20561;6826;281983;-76
2023/06/01 06:52:32;;;;;;;7.27;4.30;;;26.50;34.30;;;;;;20772;6826;117423;-76
2023/06/01 06:54:57;;;;;;;6.40;5.25;;;26.80;34.60;;;;;;20557;6826;338906;-76
2023/06/01 06:57:22;;;;;;;8.40;5.13;;;27.30;33.10;;;;;;20780;6826;117980;-75
2023/06/01 06:59:48;;;;;;;8.38;5.12;;;27.50;33.50;;;;;;20564;6826;306621;-77
2023/06/01 07:02:15;;;;;;;5.10;4.60;;;27.90;32.70;;;;;;20738;6843;117795;-76
2023/06/01 07:04:40;;;;;;;6.33;5.20;;;27.90;32.80;;;;;;20731;6843;117273;-76
2023/06/01 07:07:11;;;;;;;5.73;5.17;;;27.90;32.30;;;;;;20508;6843;311350;-76
2023/06/01 07:09:38;;;;;;;5.40;4.90;;;28.00;31.70;;;;;;20538;6838;284458;-76
2023/06/01 07:12:03;;;;;;;5.03;4.50;;;28.40;31.60;;;;;;20773;6826;117489;-76
2023/06/01 07:14:29;;;;;;;5.97;5.40;;;28.40;31.60;;;;;;20776;6826;117409;-76
2023/06/01 07:16:55;;;;;;;8.97;5.17;;;28.20;31.50;;;;;;20775;6824;117110;-76
2023/06/01 07:19:20;;;;;;;7.62;5.28;;;28.00;31.60;;;;;;20527;6842;282144;-76
2023/06/01 07:21:46;;;;;;;5.67;4.77;;;28.10;31.70;;;;;;20737;6837;117605;-76
2023/06/01 07:24:11;;;;;;;6.53;5.17;;;28.10;31.60;;;;;;20781;6826;123114;-76
2023/06/01 07:26:40;;;;;;;5.55;5.00;;;27.90;31.60;;;;;;20531;6842;278268;-76
2023/06/01 07:29:06;;;;;;;5.63;5.23;;;28.00;31.20;;;;;;20699;6852;123130;-76
2023/06/01 07:31:31;;;;;;;5.43;5.00;;;28.00;31.40;;;;;;20785;6826;117404;-75
2023/06/01 07:33:57;;;;;;;8.40;5.03;;;27.70;31.40;;;;;;20707;6842;121825;-76
2023/06/01 07:36:23;;;;;;;5.85;5.25;;;27.50;31.90;;;;;;20521;6837;308074;-75
2023/06/01 07:38:48;;;;;;;5.53;5.00;;;27.70;30.40;;;;;;20775;6826;117527;-76
2023/06/01 07:41:14;;;;;;;8.40;4.87;;;27.40;30.80;;;;;;20691;6852;123103;-76
2023/06/01 07:43:40;;;;;;;5.10;4.78;;;27.40;30.80;;;;;;20542;6826;306813;-76
2023/06/01 07:46:06;;;;;;;5.87;4.40;;;27.40;30.00;;;;;;20725;6843;117544;-78
2023/06/01 07:48:38;;;;;;;6.37;5.00;;;27.50;30.00;;;;;;20480;6852;305666;-77
2023/06/01 07:51:00;;;;;;;5.95;4.97;;;27.50;29.80;;;;;;20544;6826;314782;-80
2023/06/01 07:53:26;;;;;;;8.77;7.12;;;27.80;29.70;;;;;;20565;6826;277156;-77
2023/06/01 07:55:52;;;;;;;5.85;5.07;;;28.10;30.40;;;;;;20765;6826;117557;-77
2023/06/01 07:58:17;;;;;;;5.47;5.07;;;28.10;30.30;;;;;;20571;6826;281019;-77
2023/06/01 08:00:44;;;;;;;5.97;5.40;;;28.00;29.20;;;;;;20730;6843;117350;-77
2023/06/01 08:03:10;;;;;;;5.37;4.80;;;28.00;29.20;;;;;;20740;6838;117628;-77
2023/06/01 08:05:38;;;;;;;5.13;4.73;;;27.50;30.50;;;;;;20771;6826;123183;-77
2023/06/01 08:08:05;;;;;;;5.90;4.60;;;27.50;30.00;;;;;;20775;6826;117245;-77
2023/06/01 08:10:30;;;;;;;11.00;4.80;;;27.50;30.10;;;;;;20778;6826;122842;-76
2023/06/01 08:12:57;;;;;;;6.23;5.17;;;27.50;30.00;;;;;;20555;6826;311656;-77
2023/06/01 08:15:23;;;;;;;6.90;5.00;;;27.70;29.60;;;;;;20562;6826;307457;-76
2023/06/01 08:17:48;;;;;;;5.07;4.67;;;28.00;29.50;;;;;;20691;6843;119903;-76
2023/06/01 08:20:20;;;;;;;5.37;4.97;;;28.00;29.80;;;;;;20696;6853;117980;-77
2023/06/01 08:22:41;;;;;;;6.68;5.12;;;28.00;30.00;;;;;;20560;6826;336087;-76
2023/06/01 08:25:06;;;;;;;6.40;5.33;;;28.20;29.80;;;;;;20567;6826;278510;-77
2023/06/01 08:27:32;;;;;;;5.33;4.87;;;28.60;29.10;;;;;;20780;6826;121257;-77
2023/06/01 08:29:57;;;;;;;5.27;4.77;;;28.80;29.20;;;;;;20549;6824;306745;-77
2023/06/01 08:32:23;;;;;;;5.73;5.23;;;29.00;29.00;;;;;;20563;6826;305843;-76
2023/06/01 08:34:50;;;;;;;4.60;4.20;;;29.20;28.50;;;;;;20727;6842;117542;-77
2023/06/01 08:37:15;;;;;;;7.67;4.93;;;29.10;28.70;;;;;;20475;6852;308447;-76
2023/06/01 08:39:42;;;;;;;5.10;4.57;;;29.30;29.30;;;;;;20714;6837;117444;-77
2023/06/01 08:42:07;;;;;;;5.27;4.50;;;29.30;29.10;;;;;;20780;6826;117669;-76
2023/06/01 08:44:37;;;;;;;5.53;5.03;;;29.30;29.50;;;;;;20566;6826;277541;-77
2023/06/01 08:47:01;;;;;;;5.15;4.65;;;29.40;28.90;;;;;;20476;6852;307595;-76
2023/06/01 08:49:28;;;;;;;6.37;5.03;;;29.80;28.80;;;;;;20774;6826;117508;-76
2023/06/01 08:51:53;;;;;;;6.37;4.70;;;29.80;28.80;;;;;;20705;6843;144010;-77
2023/06/01 08:54:19;;;;;;;7.13;5.20;;;29.70;29.00;;;;;;20691;6852;118096;-77
2023/06/01 08:56:44;;;;;;;5.43;4.80;;;29.60;29.20;;;;;;20572;6826;279186;-77
2023/06/01 08:59:10;;;;;;;9.07;5.20;;;29.80;29.90;;;;;;20524;6843;299392;-77
2023/06/01 09:01:37;;;;;;;9.15;5.00;;;30.10;28.50;;;;;;20724;6843;117702;-77
2023/06/01 09:04:03;;;;;;;7.23;5.47;;;30.10;28.50;;;;;;20674;6852;119250;-77
2023/06/01 09:06:30;;;;;;;7.03;5.00;;;30.00;28.50;;;;;;20722;6838;118348;-77
2023/06/01 09:08:56;;;;;;;5.40;4.90;;;29.90;28.70;;;;;;20778;6826;117504;-77
2023/06/01 09:11:21;;;;;;;6.23;5.33;;;29.80;28.80;;;;;;20570;6826;306144;-77
2023/06/01 09:13:47;;;;;;;5.53;5.03;;;30.00;29.20;;;;;;20539;6826;340487;-76
2023/06/01 09:16:12;;;;;;;9.35;5.30;;;30.40;28.60;;;;;;20519;6843;312173;-77
2023/06/01 09:18:52;;;;;;;7.03;5.20;;;30.70;28.00;;;;;;20512;6843;315026;-77
2023/06/01 09:21:17;;;;;;;5.67;5.20;;;30.90;28.80;;;;;;20725;6843;116304;-76
2023/06/01 09:23:43;;;;;;;9.30;5.27;;;30.90;28.60;;;;;;20671;6853;117539;-77
2023/06/01 09:26:12;;;;;;;5.47;5.07;;;30.60;28.30;;;;;;20575;6826;277557;-77
2023/06/01 09:28:54;;;;;;;6.77;5.87;;;30.70;28.00;;;;;;20782;6826;117547;-77
2023/06/01 09:31:40;;;;;;;5.93;5.32;;;30.70;27.90;;;;;;20517;6843;337022;-77
2023/06/01 09:34:07;;;;;;;5.63;5.07;;;30.80;27.90;;;;;;20741;6838;121287;-76
2023/06/01 09:36:32;;;;;;;6.77;5.60;;;30.90;28.20;;;;;;20549;6826;278152;-77
2023/06/01 09:39:13;;;;;;;7.17;5.30;;;31.10;27.70;;;;;;20520;6843;308214;-77
2023/06/01 09:41:51;;;;;;;6.23;5.57;;;31.30;27.80;;;;;;20520;6836;312281;-80
2023/06/01 09:44:24;;;;;;;6.83;5.03;;;31.60;27.00;;;;;;20638;6826;117635;-76
2023/06/01 09:46:50;;;;;;;7.70;5.43;;;31.60;27.20;;;;;;20523;6842;312552;-76
2023/06/01 09:49:24;;;;;;;5.67;5.17;;;31.60;27.90;;;;;;20691;6852;122797;-77
2023/06/01 09:51:48;;;;;;;7.68;5.40;;;31.60;27.70;;;;;;20540;6826;331601;-77
2023/06/01 09:54:24;;;;;;;5.43;4.93;;;31.60;26.60;;;;;;20782;6826;119906;-77
2023/06/01 09:56:49;;;;;;;8.07;5.50;;;31.60;26.90;;;;;;20514;6842;308428;-76
2023/06/01 09:59:15;;;;;;;6.80;5.30;;;31.60;27.70;;;;;;20705;6852;117678;-77
2023/06/01 10:01:40;;;;;;;5.93;5.37;;;31.60;27.40;;;;;;20551;6826;307008;-77
2023/06/01 10:04:06;;;;;;;9.83;5.50;;;31.60;27.10;;;;;;20787;6826;117708;-77
2023/06/01 10:06:33;;;;;;;6.80;6.10;;;31.70;26.30;;;;;;20524;6843;285992;-77
2023/06/01 10:08:58;;;;;;;5.85;5.45;;;31.70;26.70;;;;;;20481;6852;278148;-77
2023/06/01 10:11:23;;;;;;;5.80;5.27;;;31.90;25.80;;;;;;20572;6826;278092;-77
2023/06/01 10:13:49;;;;;;;8.30;5.70;;;32.00;25.70;;;;;;20707;6843;120152;-77
2023/06/01 10:16:14;;;;;;;8.53;5.13;;;31.90;25.90;;;;;;20731;6843;117868;-77
2023/06/01 10:18:40;;;;;;;6.60;5.10;;;31.60;26.10;;;;;;20697;6853;117967;-77
2023/06/01 10:21:06;;;;;;;5.47;5.07;;;31.30;26.20;;;;;;20774;6826;118571;-77
2023/06/01 10:23:31;;;;;;;5.37;4.97;;;31.00;25.40;;;;;;20721;6843;116345;-76
2023/06/01 10:25:57;;;;;;;5.75;4.57;;;30.70;25.50;;;;;;20680;6853;123856;-77
2023/06/01 10:28:23;;;;;;;5.00;4.63;;;30.50;25.20;;;;;;20773;6826;118965;-77
2023/06/01 10:30:48;;;;;;;5.63;4.77;;;30.30;25.50;;;;;;20682;6853;117368;-76
2023/06/01 10:33:14;;;;;;;5.40;4.97;;;30.30;25.50;;;;;;20682;6826;117656;-77
2023/06/01 10:35:43;;;;;;;5.43;5.03;;;30.30;25.50;;;;;;20767;6826;117935;-78
2023/06/01 10:38:09;;;;;;;5.33;4.87;;;30.30;26.20;;;;;;20775;6826;123253;-76
2023/06/01 10:40:41;;;;;;;5.23;4.83;;;30.20;25.70;;;;;;20775;6826;117439;-76
2023/06/01 10:43:08;;;;;;;8.33;4.87;;;30.20;25.90;;;;;;20765;6826;117486;-76
2023/06/01 10:45:35;;;;;;;5.57;5.07;;;30.20;26.20;;;;;;20718;6843;117612;-76
2023/06/01 10:48:01;;;;;;;5.00;4.70;;;30.30;26.20;;;;;;20718;6838;117204;-76
2023/06/01 10:50:28;;;;;;;5.37;4.93;;;30.40;26.20;;;;;;20769;6826;117634;-77
2023/06/01 10:52:54;;;;;;;6.47;5.15;;;30.40;26.30;;;;;;20478;6851;309391;-78
2023/06/01 10:55:23;;;;;;;5.63;5.13;;;30.80;27.00;;;;;;20773;6826;116519;-76
2023/06/01 10:57:48;;;;;;;5.60;5.10;;;31.00;26.10;;;;;;20493;6842;306910;-77
2023/06/01 11:00:26;;;;;;;5.53;5.13;;;31.20;24.40;;;;;;20700;6852;117389;-76
2023/06/01 11:02:56;;;;;;;8.90;5.27;;;31.10;24.60;;;;;;20539;6837;315930;-77
2023/06/01 11:05:48;;;;;;;5.27;4.80;;;31.10;24.40;;;;;;20784;6826;120363;-77
2023/06/01 11:08:28;;;;;;;4.97;4.67;;;31.00;24.70;;;;;;20780;6826;116277;-76
2023/06/01 11:10:53;;;;;;;5.70;4.90;;;30.90;25.10;;;;;;20719;6842;117137;-77
2023/06/01 11:13:19;;;;;;;6.00;4.80;;;30.90;25.50;;;;;;20676;6852;121076;-77
2023/06/01 11:16:03;;;;;;;5.53;4.97;;;30.80;25.90;;;;;;20765;6826;119110;-77
2023/06/01 11:18:58;;;;;;;8.13;5.47;;;30.80;25.60;;;;;;20772;6826;117086;-77
2023/06/01 11:21:39;;;;;;;5.70;5.20;;;31.00;24.70;;;;;;20572;6826;306500;-76
2023/06/01 11:24:03;;;;;;;5.53;5.20;;;30.90;24.60;;;;;;20720;6843;117360;-76
2023/06/01 11:26:29;;;;;;;5.53;5.10;;;31.00;24.90;;;;;;20713;6843;118847;-75
2023/06/01 11:29:02;;;;;;;5.93;5.43;;;30.70;25.60;;;;;;20684;6852;117176;-76
2023/06/01 11:31:27;;;;;;;5.80;5.40;;;30.60;26.10;;;;;;20563;6826;277083;-76
2023/06/01 11:33:53;;;;;;;5.77;5.27;;;30.90;25.80;;;;;;20527;6826;277214;-76
2023/06/01 11:36:26;;;;;;;5.25;4.87;;;31.30;25.90;;;;;;20517;6843;277334;-76
2023/06/01 11:38:53;;;;;;;5.47;4.97;;;31.60;26.30;;;;;;20725;6843;117497;-76
2023/06/01 11:41:23;;;;;;;6.00;5.60;;;31.70;25.60;;;;;;20706;6843;117494;-79
2023/06/01 11:43:58;;;;;;;4.83;4.53;;;31.20;26.40;;;;;;20660;6853;122407;-76
2023/06/01 11:46:23;;;;;;;5.53;5.10;;;31.30;26.40;;;;;;20776;6826;117805;-77
2023/06/01 11:49:04;;;;;;;5.53;5.03;;;31.10;26.10;;;;;;20776;6826;121118;-77
2023/06/01 11:51:29;;;;;;;6.73;5.50;;;30.90;26.50;;;;;;20778;6826;123542;-76
2023/06/01 11:53:55;;;;;;;5.83;5.27;;;30.90;26.50;;;;;;20541;6826;307355;-76
2023/06/01 11:56:21;;;;;;;5.68;5.18;;;31.40;26.60;;;;;;20571;6826;277574;-75
2023/06/01 11:58:46;;;;;;;6.20;5.60;;;31.40;26.00;;;;;;20750;6826;117833;-77
2023/06/01 12:01:12;;;;;;;5.93;5.33;;;31.30;26.00;;;;;;20772;6826;117461;-76
2023/06/01 12:03:45;;;;;;;5.57;5.27;;;31.30;26.00;;;;;;20564;6825;307824;-80
2023/06/01 12:06:10;;;;;;;5.50;5.00;;;31.40;25.30;;;;;;20633;6826;117208;-76
2023/06/01 12:08:37;;;;;;;5.83;5.37;;;31.40;24.90;;;;;;20475;6842;293332;-77
2023/06/01 12:11:03;;;;;;;5.93;5.37;;;31.40;24.90;;;;;;20510;6842;312060;-76
2023/06/01 12:13:29;;;;;;;6.30;5.60;;;31.50;24.90;;;;;;20686;6852;118150;-76
2023/06/01 12:15:54;;;;;;;5.60;5.10;;;31.40;24.80;;;;;;20750;6826;123142;-76
2023/06/01 12:18:31;;;;;;;5.73;5.10;;;31.30;25.20;;;;;;20718;6842;117771;-76
2023/06/01 12:20:56;;;;;;;4.90;4.60;;;31.20;25.50;;;;;;20693;6852;117108;-77
2023/06/01 12:23:22;;;;;;;5.23;4.83;;;31.10;25.70;;;;;;20776;6826;117233;-77
2023/06/01 12:25:59;;;;;;;5.57;5.07;;;31.10;25.70;;;;;;20541;6826;335505;-76
2023/06/01 12:28:24;;;;;;;6.20;5.80;;;31.30;25.50;;;;;;20770;6826;117425;-77
2023/06/01 12:30:48;;;;;;;6.00;5.33;;;31.30;25.30;;;;;;20553;6826;306542;-77
2023/06/01 12:33:34;;;;;;;5.00;4.55;;;31.30;24.70;;;;;;20780;6826;123300;-78
2023/06/01 12:35:59;;;;;;;5.20;4.80;;;31.20;24.70;;;;;;20486;6843;312218;-76
2023/06/01 12:38:26;;;;;;;5.17;4.60;;;31.40;25.90;;;;;;20471;6852;338481;-78